To NAV CANADA Home Page Login to a new session Search on AWWS site Feedback and Comments Disclaimer Vers la page française équivalente Tips FAQ What's new on the site To the Forecasts and Observations / NOTAM section To "File a Flight Plan" website Publications and other links Update of the User's profile FIC Telephone Numbers My Weather Data Folder Route Weather Data Regional Weather Data Local Weather Data To the Forecasts and Observations / NOTAM section
Request Generated 03/23/2017 at 00:13:14 UTC . Weather information available at that time is displayed.

METAR/TAF

EUREKA/NU    

METAR CWEU 230000Z 00000KT 15SM IC FEW030 FEW080 M38/M42 A2982 RMK
SC1AC1 SC TR AC TR PARHELIA SLP102=
METAR CWEU 222300Z 06002KT 15SM IC FEW030 M39/M43 A2982 RMK SC1 SC TR
SLP103=
METAR CWEU 222200Z VRB02KT 15SM IC FEW030 FEW090 M37/M42 A2983 RMK
SC1AC1 SC TR AC TR SLP107=

TAF CYEU 222341Z 2300/2302 ADVISORY OFFSITE VRB03KT P6SM FEW030
RMK NXT FCST WILL BE ISSUED AT 231045Z=
Your time UTC time
Weather data provided by Environment Canada and NAV CANADA